sensor_id;sensor_type;location;lat;lon;timestamp;P1;durP1;ratioP1;P2;durP2;ratioP2
2257;SDS011;1136;51.574;7.706;2023-03-29T00:01:55;4.97;;;4.57;;
2257;SDS011;1136;51.574;7.706;2023-03-29T00:04:22;4.30;;;3.73;;
2257;SDS011;1136;51.574;7.706;2023-03-29T00:06:48;5.10;;;4.20;;
2257;SDS011;1136;51.574;7.706;2023-03-29T00:09:16;4.30;;;3.90;;
2257;SDS011;1136;51.574;7.706;2023-03-29T00:11:43;4.60;;;4.20;;
2257;SDS011;1136;51.574;7.706;2023-03-29T00:14:10;4.27;;;3.87;;
2257;SDS011;1136;51.574;7.706;2023-03-29T00:16:37;4.40;;;4.00;;
2257;SDS011;1136;51.574;7.706;2023-03-29T00:19:04;5.97;;;4.30;;
2257;SDS011;1136;51.574;7.706;2023-03-29T00:21:31;6.00;;;4.30;;
2257;SDS011;1136;51.574;7.706;2023-03-29T00:23:58;11.60;;;7.70;;
2257;SDS011;1136;51.574;7.706;2023-03-29T00:26:24;48.97;;;24.70;;
2257;SDS011;1136;51.574;7.706;2023-03-29T00:28:51;40.33;;;22.37;;
2257;SDS011;1136;51.574;7.706;2023-03-29T00:31:17;107.37;;;44.57;;
2257;SDS011;1136;51.574;7.706;2023-03-29T00:33:44;181.23;;;71.90;;
2257;SDS011;1136;51.574;7.706;2023-03-29T00:36:11;139.40;;;59.03;;
2257;SDS011;1136;51.574;7.706;2023-03-29T00:38:38;287.07;;;110.10;;
2257;SDS011;1136;51.574;7.706;2023-03-29T00:41:05;200.30;;;83.87;;
2257;SDS011;1136;51.574;7.706;2023-03-29T00:46:23;23.70;;;12.43;;
2257;SDS011;1136;51.574;7.706;2023-03-29T00:48:51;37.73;;;16.83;;
2257;SDS011;1136;51.574;7.706;2023-03-29T00:51:21;10.93;;;6.80;;
2257;SDS011;1136;51.574;7.706;2023-03-29T00:53:51;17.77;;;10.50;;
2257;SDS011;1136;51.574;7.706;2023-03-29T00:56:28;18.43;;;10.00;;
2257;SDS011;1136;51.574;7.706;2023-03-29T00:58:58;8.37;;;5.73;;
2257;SDS011;1136;51.574;7.706;2023-03-29T01:01:34;11.23;;;5.87;;
2257;SDS011;1136;51.574;7.706;2023-03-29T01:04:13;4.50;;;4.10;;
2257;SDS011;1136;51.574;7.706;2023-03-29T01:06:45;4.30;;;3.83;;
2257;SDS011;1136;51.574;7.706;2023-03-29T01:09:18;4.17;;;3.87;;
2257;SDS011;1136;51.574;7.706;2023-03-29T01:11:51;4.63;;;4.20;;
2257;SDS011;1136;51.574;7.706;2023-03-29T01:14:33;5.20;;;3.20;;
2257;SDS011;1136;51.574;7.706;2023-03-29T01:17:03;6.17;;;4.10;;
2257;SDS011;1136;51.574;7.706;2023-03-29T01:19:33;4.53;;;4.13;;
2257;SDS011;1136;51.574;7.706;2023-03-29T01:22:09;5.20;;;3.60;;
2257;SDS011;1136;51.574;7.706;2023-03-29T01:29:49;3.53;;;3.23;;
2257;SDS011;1136;51.574;7.706;2023-03-29T01:32:26;3.20;;;3.00;;
2257;SDS011;1136;51.574;7.706;2023-03-29T01:35:07;5.77;;;3.60;;
2257;SDS011;1136;51.574;7.706;2023-03-29T01:40:18;3.70;;;3.30;;
2257;SDS011;1136;51.574;7.706;2023-03-29T01:42:56;4.10;;;3.67;;
2257;SDS011;1136;51.574;7.706;2023-03-29T01:45:30;9.20;;;3.20;;
2257;SDS011;1136;51.574;7.706;2023-03-29T01:50:42;3.37;;;3.07;;
2257;SDS011;1136;51.574;7.706;2023-03-29T01:53:18;4.30;;;3.23;;
2257;SDS011;1136;51.574;7.706;2023-03-29T01:55:54;7.33;;;3.30;;
2257;SDS011;1136;51.574;7.706;2023-03-29T01:58:22;3.50;;;3.20;;
2257;SDS011;1136;51.574;7.706;2023-03-29T02:00:52;3.30;;;3.00;;
2257;SDS011;1136;51.574;7.706;2023-03-29T02:03:23;3.80;;;2.80;;
2257;SDS011;1136;51.574;7.706;2023-03-29T02:05:52;4.53;;;3.10;;
2257;SDS011;1136;51.574;7.706;2023-03-29T02:08:20;2.57;;;2.37;;
2257;SDS011;1136;51.574;7.706;2023-03-29T02:10:48;3.33;;;2.80;;
2257;SDS011;1136;51.574;7.706;2023-03-29T02:13:17;3.37;;;2.87;;
2257;SDS011;1136;51.574;7.706;2023-03-29T02:15:45;3.10;;;2.90;;
2257;SDS011;1136;51.574;7.706;2023-03-29T02:18:15;5.50;;;3.10;;
2257;SDS011;1136;51.574;7.706;2023-03-29T02:20:47;3.70;;;3.40;;
2257;SDS011;1136;51.574;7.706;2023-03-29T02:25:52;2.60;;;2.40;;
2257;SDS011;1136;51.574;7.706;2023-03-29T02:28:20;4.00;;;3.30;;
2257;SDS011;1136;51.574;7.706;2023-03-29T02:33:33;4.57;;;2.87;;
2257;SDS011;1136;51.574;7.706;2023-03-29T02:38:44;3.23;;;3.03;;
2257;SDS011;1136;51.574;7.706;2023-03-29T02:41:14;3.57;;;3.23;;
2257;SDS011;1136;51.574;7.706;2023-03-29T02:43:43;2.70;;;2.47;;
2257;SDS011;1136;51.574;7.706;2023-03-29T02:46:12;2.63;;;2.20;;
2257;SDS011;1136;51.574;7.706;2023-03-29T02:48:39;2.60;;;2.40;;
2257;SDS011;1136;51.574;7.706;2023-03-29T02:51:28;3.70;;;2.80;;
2257;SDS011;1136;51.574;7.706;2023-03-29T02:54:17;4.20;;;2.73;;
2257;SDS011;1136;51.574;7.706;2023-03-29T02:56:44;3.70;;;3.40;;
2257;SDS011;1136;51.574;7.706;2023-03-29T02:59:15;4.40;;;2.90;;
2257;SDS011;1136;51.574;7.706;2023-03-29T03:01:47;3.07;;;2.63;;
2257;SDS011;1136;51.574;7.706;2023-03-29T03:04:14;4.40;;;2.70;;
2257;SDS011;1136;51.574;7.706;2023-03-29T03:06:43;3.10;;;2.80;;
2257;SDS011;1136;51.574;7.706;2023-03-29T03:09:10;6.10;;;3.20;;
2257;SDS011;1136;51.574;7.706;2023-03-29T03:11:37;3.07;;;2.80;;
2257;SDS011;1136;51.574;7.706;2023-03-29T03:14:04;4.67;;;3.10;;
2257;SDS011;1136;51.574;7.706;2023-03-29T03:16:32;7.90;;;3.03;;
2257;SDS011;1136;51.574;7.706;2023-03-29T03:18:59;3.60;;;2.90;;
2257;SDS011;1136;51.574;7.706;2023-03-29T03:21:26;4.27;;;2.90;;
2257;SDS011;1136;51.574;7.706;2023-03-29T03:23:55;4.87;;;3.03;;
2257;SDS011;1136;51.574;7.706;2023-03-29T03:26:22;4.90;;;3.73;;
2257;SDS011;1136;51.574;7.706;2023-03-29T03:28:50;5.43;;;3.07;;
2257;SDS011;1136;51.574;7.706;2023-03-29T03:31:17;2.60;;;2.40;;
2257;SDS011;1136;51.574;7.706;2023-03-29T03:33:44;3.90;;;2.43;;
2257;SDS011;1136;51.574;7.706;2023-03-29T03:36:12;3.03;;;2.70;;
2257;SDS011;1136;51.574;7.706;2023-03-29T03:38:39;3.23;;;2.77;;
2257;SDS011;1136;51.574;7.706;2023-03-29T03:41:06;4.27;;;3.00;;
2257;SDS011;1136;51.574;7.706;2023-03-29T03:43:33;4.47;;;3.20;;
2257;SDS011;1136;51.574;7.706;2023-03-29T03:46:00;3.30;;;3.00;;
2257;SDS011;1136;51.574;7.706;2023-03-29T03:48:27;5.20;;;3.13;;
2257;SDS011;1136;51.574;7.706;2023-03-29T03:50:55;3.80;;;2.77;;
2257;SDS011;1136;51.574;7.706;2023-03-29T03:53:23;3.80;;;2.60;;
2257;SDS011;1136;51.574;7.706;2023-03-29T03:55:51;3.30;;;3.10;;
2257;SDS011;1136;51.574;7.706;2023-03-29T03:58:21;5.17;;;2.70;;
2257;SDS011;1136;51.574;7.706;2023-03-29T04:00:48;3.17;;;2.80;;
2257;SDS011;1136;51.574;7.706;2023-03-29T04:03:16;3.07;;;2.80;;
2257;SDS011;1136;51.574;7.706;2023-03-29T04:05:43;2.97;;;2.67;;
2257;SDS011;1136;51.574;7.706;2023-03-29T04:08:11;3.43;;;2.57;;
2257;SDS011;1136;51.574;7.706;2023-03-29T04:10:38;3.87;;;2.50;;
2257;SDS011;1136;51.574;7.706;2023-03-29T04:13:06;3.00;;;2.70;;
2257;SDS011;1136;51.574;7.706;2023-03-29T04:15:33;2.97;;;2.70;;
2257;SDS011;1136;51.574;7.706;2023-03-29T04:18:04;3.00;;;2.30;;
2257;SDS011;1136;51.574;7.706;2023-03-29T04:20:32;5.53;;;4.20;;
2257;SDS011;1136;51.574;7.706;2023-03-29T04:22:59;5.10;;;3.27;;
2257;SDS011;1136;51.574;7.706;2023-03-29T04:25:26;4.43;;;3.00;;
2257;SDS011;1136;51.574;7.706;2023-03-29T04:27:52;2.87;;;2.67;;
2257;SDS011;1136;51.574;7.706;2023-03-29T04:30:19;3.90;;;2.97;;
2257;SDS011;1136;51.574;7.706;2023-03-29T04:32:46;3.60;;;3.30;;
2257;SDS011;1136;51.574;7.706;2023-03-29T04:35:13;4.13;;;2.77;;
2257;SDS011;1136;51.574;7.706;2023-03-29T04:37:39;3.23;;;2.97;;
2257;SDS011;1136;51.574;7.706;2023-03-29T04:40:07;2.80;;;2.60;;
2257;SDS011;1136;51.574;7.706;2023-03-29T04:42:35;4.30;;;3.37;;
2257;SDS011;1136;51.574;7.706;2023-03-29T04:45:03;5.40;;;2.60;;
2257;SDS011;1136;51.574;7.706;2023-03-29T04:47:32;3.43;;;3.17;;
2257;SDS011;1136;51.574;7.706;2023-03-29T04:50:02;3.50;;;3.20;;
2257;SDS011;1136;51.574;7.706;2023-03-29T04:52:28;5.00;;;3.17;;
2257;SDS011;1136;51.574;7.706;2023-03-29T04:54:58;3.20;;;2.90;;
2257;SDS011;1136;51.574;7.706;2023-03-29T04:57:27;7.60;;;3.17;;
2257;SDS011;1136;51.574;7.706;2023-03-29T04:59:55;3.80;;;2.90;;
2257;SDS011;1136;51.574;7.706;2023-03-29T05:02:22;3.70;;;3.03;;
2257;SDS011;1136;51.574;7.706;2023-03-29T05:04:48;3.83;;;3.10;;
2257;SDS011;1136;51.574;7.706;2023-03-29T05:07:15;4.60;;;3.37;;
2257;SDS011;1136;51.574;7.706;2023-03-29T05:09:44;5.80;;;3.60;;
2257;SDS011;1136;51.574;7.706;2023-03-29T05:12:10;4.03;;;3.37;;
2257;SDS011;1136;51.574;7.706;2023-03-29T05:14:37;6.13;;;3.93;;
2257;SDS011;1136;51.574;7.706;2023-03-29T05:17:04;9.37;;;3.23;;
2257;SDS011;1136;51.574;7.706;2023-03-29T05:19:31;7.60;;;3.30;;
2257;SDS011;1136;51.574;7.706;2023-03-29T05:21:58;5.40;;;3.37;;
2257;SDS011;1136;51.574;7.706;2023-03-29T05:24:26;6.87;;;3.53;;
2257;SDS011;1136;51.574;7.706;2023-03-29T05:26:52;3.90;;;3.50;;
2257;SDS011;1136;51.574;7.706;2023-03-29T05:29:19;5.23;;;3.90;;
2257;SDS011;1136;51.574;7.706;2023-03-29T05:31:45;6.70;;;4.10;;
2257;SDS011;1136;51.574;7.706;2023-03-29T05:34:12;4.80;;;4.37;;
2257;SDS011;1136;51.574;7.706;2023-03-29T05:36:39;4.60;;;4.17;;
2257;SDS011;1136;51.574;7.706;2023-03-29T05:39:05;8.90;;;4.23;;
2257;SDS011;1136;51.574;7.706;2023-03-29T05:41:32;4.30;;;3.90;;
2257;SDS011;1136;51.574;7.706;2023-03-29T05:43:59;5.07;;;4.37;;
2257;SDS011;1136;51.574;7.706;2023-03-29T05:46:27;12.10;;;4.13;;
2257;SDS011;1136;51.574;7.706;2023-03-29T05:48:53;6.33;;;3.53;;
2257;SDS011;1136;51.574;7.706;2023-03-29T05:51:20;3.87;;;3.50;;
2257;SDS011;1136;51.574;7.706;2023-03-29T05:53:50;4.00;;;3.50;;
2257;SDS011;1136;51.574;7.706;2023-03-29T05:56:17;5.77;;;3.53;;
2257;SDS011;1136;51.574;7.706;2023-03-29T05:58:44;6.40;;;3.60;;
2257;SDS011;1136;51.574;7.706;2023-03-29T06:01:14;6.00;;;4.00;;
2257;SDS011;1136;51.574;7.706;2023-03-29T06:03:44;4.17;;;3.80;;
2257;SDS011;1136;51.574;7.706;2023-03-29T06:06:13;8.47;;;4.67;;
2257;SDS011;1136;51.574;7.706;2023-03-29T06:08:42;6.67;;;4.40;;
2257;SDS011;1136;51.574;7.706;2023-03-29T06:11:10;5.57;;;4.17;;
2257;SDS011;1136;51.574;7.706;2023-03-29T06:13:37;4.93;;;4.23;;
2257;SDS011;1136;51.574;7.706;2023-03-29T06:16:07;5.27;;;4.30;;
2257;SDS011;1136;51.574;7.706;2023-03-29T06:18:35;5.63;;;4.40;;
2257;SDS011;1136;51.574;7.706;2023-03-29T06:21:03;8.93;;;6.50;;
2257;SDS011;1136;51.574;7.706;2023-03-29T06:23:30;9.30;;;7.90;;
2257;SDS011;1136;51.574;7.706;2023-03-29T06:25:57;8.37;;;6.07;;
2257;SDS011;1136;51.574;7.706;2023-03-29T06:28:25;6.23;;;5.63;;
2257;SDS011;1136;51.574;7.706;2023-03-29T06:30:52;8.67;;;5.10;;
2257;SDS011;1136;51.574;7.706;2023-03-29T06:33:21;16.87;;;9.60;;
2257;SDS011;1136;51.574;7.706;2023-03-29T06:35:48;27.43;;;9.60;;
2257;SDS011;1136;51.574;7.706;2023-03-29T06:38:15;10.30;;;6.97;;
2257;SDS011;1136;51.574;7.706;2023-03-29T06:40:42;18.07;;;6.97;;
2257;SDS011;1136;51.574;7.706;2023-03-29T06:43:10;13.73;;;6.40;;
2257;SDS011;1136;51.574;7.706;2023-03-29T06:45:37;14.63;;;6.60;;
2257;SDS011;1136;51.574;7.706;2023-03-29T06:48:04;8.43;;;6.23;;
2257;SDS011;1136;51.574;7.706;2023-03-29T06:50:33;6.43;;;5.40;;
2257;SDS011;1136;51.574;7.706;2023-03-29T06:53:00;6.47;;;5.80;;
2257;SDS011;1136;51.574;7.706;2023-03-29T06:55:27;8.20;;;5.17;;
2257;SDS011;1136;51.574;7.706;2023-03-29T06:57:54;7.80;;;5.60;;
2257;SDS011;1136;51.574;7.706;2023-03-29T07:00:21;8.10;;;5.33;;
2257;SDS011;1136;51.574;7.706;2023-03-29T07:02:53;5.03;;;4.63;;
2257;SDS011;1136;51.574;7.706;2023-03-29T07:05:21;6.10;;;5.17;;
2257;SDS011;1136;51.574;7.706;2023-03-29T07:07:49;9.30;;;5.17;;
2257;SDS011;1136;51.574;7.706;2023-03-29T07:10:21;5.43;;;4.17;;
2257;SDS011;1136;51.574;7.706;2023-03-29T07:12:50;5.63;;;4.40;;
2257;SDS011;1136;51.574;7.706;2023-03-29T07:15:18;6.37;;;4.67;;
2257;SDS011;1136;51.574;7.706;2023-03-29T07:17:47;4.63;;;4.23;;
2257;SDS011;1136;51.574;7.706;2023-03-29T07:20:14;5.03;;;4.50;;
2257;SDS011;1136;51.574;7.706;2023-03-29T07:22:44;9.70;;;4.70;;
2257;SDS011;1136;51.574;7.706;2023-03-29T07:25:12;6.93;;;4.60;;
2257;SDS011;1136;51.574;7.706;2023-03-29T07:27:40;4.90;;;4.33;;
2257;SDS011;1136;51.574;7.706;2023-03-29T07:30:09;6.57;;;4.20;;
2257;SDS011;1136;51.574;7.706;2023-03-29T07:32:38;5.20;;;4.53;;
2257;SDS011;1136;51.574;7.706;2023-03-29T07:35:06;9.23;;;4.30;;
2257;SDS011;1136;51.574;7.706;2023-03-29T07:37:34;5.37;;;4.50;;
2257;SDS011;1136;51.574;7.706;2023-03-29T07:40:03;7.87;;;4.53;;
2257;SDS011;1136;51.574;7.706;2023-03-29T07:42:34;6.33;;;4.60;;
2257;SDS011;1136;51.574;7.706;2023-03-29T07:45:04;7.00;;;4.80;;
2257;SDS011;1136;51.574;7.706;2023-03-29T07:47:32;7.43;;;4.43;;
2257;SDS011;1136;51.574;7.706;2023-03-29T07:49:59;6.70;;;4.57;;
2257;SDS011;1136;51.574;7.706;2023-03-29T07:52:26;5.70;;;4.97;;
2257;SDS011;1136;51.574;7.706;2023-03-29T07:54:55;10.40;;;5.57;;
2257;SDS011;1136;51.574;7.706;2023-03-29T07:57:22;9.60;;;6.20;;
2257;SDS011;1136;51.574;7.706;2023-03-29T07:59:50;6.70;;;4.60;;
2257;SDS011;1136;51.574;7.706;2023-03-29T08:02:17;5.97;;;4.80;;
2257;SDS011;1136;51.574;7.706;2023-03-29T08:04:45;5.60;;;4.40;;
2257;SDS011;1136;51.574;7.706;2023-03-29T08:07:12;5.90;;;4.50;;
2257;SDS011;1136;51.574;7.706;2023-03-29T08:09:43;10.60;;;5.30;;
2257;SDS011;1136;51.574;7.706;2023-03-29T08:12:10;5.00;;;4.53;;
2257;SDS011;1136;51.574;7.706;2023-03-29T08:14:37;4.23;;;3.77;;
2257;SDS011;1136;51.574;7.706;2023-03-29T08:17:04;4.33;;;3.93;;
2257;SDS011;1136;51.574;7.706;2023-03-29T08:19:32;8.23;;;3.93;;
2257;SDS011;1136;51.574;7.706;2023-03-29T08:21:59;4.50;;;3.77;;
2257;SDS011;1136;51.574;7.706;2023-03-29T08:24:26;3.70;;;3.20;;
2257;SDS011;1136;51.574;7.706;2023-03-29T08:26:52;4.73;;;3.40;;
2257;SDS011;1136;51.574;7.706;2023-03-29T08:29:19;5.47;;;3.50;;
2257;SDS011;1136;51.574;7.706;2023-03-29T08:31:46;4.17;;;3.80;;
2257;SDS011;1136;51.574;7.706;2023-03-29T08:34:13;3.60;;;3.30;;
2257;SDS011;1136;51.574;7.706;2023-03-29T08:36:39;7.70;;;5.30;;
2257;SDS011;1136;51.574;7.706;2023-03-29T08:39:06;8.90;;;5.23;;
2257;SDS011;1136;51.574;7.706;2023-03-29T08:49:40;4.53;;;3.47;;
2257;SDS011;1136;51.574;7.706;2023-03-29T08:52:13;5.43;;;2.63;;
2257;SDS011;1136;51.574;7.706;2023-03-29T08:54:46;5.50;;;3.50;;
2257;SDS011;1136;51.574;7.706;2023-03-29T08:57:21;7.97;;;4.07;;
2257;SDS011;1136;51.574;7.706;2023-03-29T09:00:00;7.13;;;4.00;;
2257;SDS011;1136;51.574;7.706;2023-03-29T09:02:29;6.43;;;3.63;;
2257;SDS011;1136;51.574;7.706;2023-03-29T09:05:04;5.53;;;3.40;;
2257;SDS011;1136;51.574;7.706;2023-03-29T09:07:34;5.23;;;3.53;;
2257;SDS011;1136;51.574;7.706;2023-03-29T09:10:01;3.40;;;3.20;;
2257;SDS011;1136;51.574;7.706;2023-03-29T09:12:39;7.87;;;4.10;;
2257;SDS011;1136;51.574;7.706;2023-03-29T09:15:13;4.10;;;3.73;;
2257;SDS011;1136;51.574;7.706;2023-03-29T09:21:47;5.13;;;3.80;;
2257;SDS011;1136;51.574;7.706;2023-03-29T09:24:02;7.37;;;3.83;;
2257;SDS011;1136;51.574;7.706;2023-03-29T09:29:45;3.83;;;3.43;;
2257;SDS011;1136;51.574;7.706;2023-03-29T09:32:20;4.37;;;3.20;;
2257;SDS011;1136;51.574;7.706;2023-03-29T09:37:32;4.57;;;3.80;;
2257;SDS011;1136;51.574;7.706;2023-03-29T09:40:00;7.87;;;3.93;;
2257;SDS011;1136;51.574;7.706;2023-03-29T09:42:30;6.27;;;4.10;;
2257;SDS011;1136;51.574;7.706;2023-03-29T09:45:02;5.23;;;4.23;;
2257;SDS011;1136;51.574;7.706;2023-03-29T09:47:45;6.97;;;4.30;;
2257;SDS011;1136;51.574;7.706;2023-03-29T09:50:17;13.93;;;4.97;;
2257;SDS011;1136;51.574;7.706;2023-03-29T09:52:57;6.90;;;4.03;;
2257;SDS011;1136;51.574;7.706;2023-03-29T09:55:29;7.03;;;4.90;;
2257;SDS011;1136;51.574;7.706;2023-03-29T09:57:57;10.83;;;4.57;;
2257;SDS011;1136;51.574;7.706;2023-03-29T10:00:26;7.33;;;4.33;;
2257;SDS011;1136;51.574;7.706;2023-03-29T10:02:53;6.43;;;4.63;;
2257;SDS011;1136;51.574;7.706;2023-03-29T10:05:24;6.80;;;4.50;;
2257;SDS011;1136;51.574;7.706;2023-03-29T10:07:52;7.37;;;4.53;;
2257;SDS011;1136;51.574;7.706;2023-03-29T10:10:26;5.03;;;4.00;;
2257;SDS011;1136;51.574;7.706;2023-03-29T10:13:04;5.73;;;4.57;;
2257;SDS011;1136;51.574;7.706;2023-03-29T10:15:32;7.40;;;4.93;;
2257;SDS011;1136;51.574;7.706;2023-03-29T10:17:59;6.70;;;4.27;;
2257;SDS011;1136;51.574;7.706;2023-03-29T10:20:33;9.77;;;5.27;;
2257;SDS011;1136;51.574;7.706;2023-03-29T10:23:04;7.77;;;4.80;;
2257;SDS011;1136;51.574;7.706;2023-03-29T10:25:31;7.50;;;5.40;;
2257;SDS011;1136;51.574;7.706;2023-03-29T10:28:06;8.40;;;5.37;;
2257;SDS011;1136;51.574;7.706;2023-03-29T10:30:37;6.37;;;5.43;;
2257;SDS011;1136;51.574;7.706;2023-03-29T10:33:05;5.87;;;4.77;;
2257;SDS011;1136;51.574;7.706;2023-03-29T10:35:38;7.77;;;5.17;;
2257;SDS011;1136;51.574;7.706;2023-03-29T10:38:14;6.23;;;5.03;;
2257;SDS011;1136;51.574;7.706;2023-03-29T10:40:46;5.57;;;5.00;;
2257;SDS011;1136;51.574;7.706;2023-03-29T10:43:21;8.73;;;5.43;;
2257;SDS011;1136;51.574;7.706;2023-03-29T10:45:51;5.30;;;4.80;;
2257;SDS011;1136;51.574;7.706;2023-03-29T10:48:27;6.90;;;4.17;;
2257;SDS011;1136;51.574;7.706;2023-03-29T10:50:59;6.70;;;4.80;;
2257;SDS011;1136;51.574;7.706;2023-03-29T10:53:28;5.17;;;4.53;;
2257;SDS011;1136;51.574;7.706;2023-03-29T10:58:26;7.80;;;4.60;;
2257;SDS011;1136;51.574;7.706;2023-03-29T11:00:57;5.03;;;4.10;;
2257;SDS011;1136;51.574;7.706;2023-03-29T11:06:22;6.07;;;5.20;;
2257;SDS011;1136;51.574;7.706;2023-03-29T11:08:57;6.63;;;4.13;;
2257;SDS011;1136;51.574;7.706;2023-03-29T11:14:37;5.53;;;4.07;;
2257;SDS011;1136;51.574;7.706;2023-03-29T11:28:29;5.20;;;2.97;;
2257;SDS011;1136;51.574;7.706;2023-03-29T11:31:07;4.73;;;3.87;;
2257;SDS011;1136;51.574;7.706;2023-03-29T11:33:44;6.07;;;3.37;;
2257;SDS011;1136;51.574;7.706;2023-03-29T11:41:37;4.43;;;4.03;;
2257;SDS011;1136;51.574;7.706;2023-03-29T11:44:13;4.80;;;3.67;;
2257;SDS011;1136;51.574;7.706;2023-03-29T11:46:45;4.23;;;3.83;;
2257;SDS011;1136;51.574;7.706;2023-03-29T11:49:19;4.17;;;3.50;;
2257;SDS011;1136;51.574;7.706;2023-03-29T11:52:36;8.57;;;4.50;;
2257;SDS011;1136;51.574;7.706;2023-03-29T11:54:40;4.43;;;3.73;;
2257;SDS011;1136;51.574;7.706;2023-03-29T11:57:11;5.07;;;3.80;;
2257;SDS011;1136;51.574;7.706;2023-03-29T11:59:40;7.00;;;3.80;;
2257;SDS011;1136;51.574;7.706;2023-03-29T12:02:12;4.97;;;3.40;;
2257;SDS011;1136;51.574;7.706;2023-03-29T12:04:43;4.30;;;3.33;;
2257;SDS011;1136;51.574;7.706;2023-03-29T12:07:17;3.50;;;3.20;;
2257;SDS011;1136;51.574;7.706;2023-03-29T12:09:51;5.10;;;3.23;;
2257;SDS011;1136;51.574;7.706;2023-03-29T12:12:23;4.10;;;3.30;;
2257;SDS011;1136;51.574;7.706;2023-03-29T12:20:21;6.73;;;3.40;;
2257;SDS011;1136;51.574;7.706;2023-03-29T12:22:52;7.70;;;4.70;;
2257;SDS011;1136;51.574;7.706;2023-03-29T12:25:22;3.40;;;2.80;;
2257;SDS011;1136;51.574;7.706;2023-03-29T12:36:29;4.73;;;3.27;;
2257;SDS011;1136;51.574;7.706;2023-03-29T12:38:59;5.10;;;3.53;;
2257;SDS011;1136;51.574;7.706;2023-03-29T12:41:26;4.73;;;3.33;;
2257;SDS011;1136;51.574;7.706;2023-03-29T12:43:53;3.37;;;3.07;;
2257;SDS011;1136;51.574;7.706;2023-03-29T12:46:30;11.80;;;4.70;;
2257;SDS011;1136;51.574;7.706;2023-03-29T12:49:13;3.50;;;3.20;;
2257;SDS011;1136;51.574;7.706;2023-03-29T12:51:46;5.73;;;2.90;;
2257;SDS011;1136;51.574;7.706;2023-03-29T13:01:56;4.70;;;3.47;;
2257;SDS011;1136;51.574;7.706;2023-03-29T13:36:06;3.23;;;3.00;;
2257;SDS011;1136;51.574;7.706;2023-03-29T13:38:48;3.87;;;3.17;;
2257;SDS011;1136;51.574;7.706;2023-03-29T13:41:25;3.83;;;3.53;;
2257;SDS011;1136;51.574;7.706;2023-03-29T13:43:57;4.07;;;3.20;;
2257;SDS011;1136;51.574;7.706;2023-03-29T13:46:40;4.93;;;3.23;;
2257;SDS011;1136;51.574;7.706;2023-03-29T13:54:29;4.97;;;3.77;;
2257;SDS011;1136;51.574;7.706;2023-03-29T14:02:24;7.23;;;4.60;;
2257;SDS011;1136;51.574;7.706;2023-03-29T14:05:14;5.63;;;3.73;;
2257;SDS011;1136;51.574;7.706;2023-03-29T14:07:44;4.83;;;4.07;;
2257;SDS011;1136;51.574;7.706;2023-03-29T14:10:13;4.80;;;4.40;;
2257;SDS011;1136;51.574;7.706;2023-03-29T14:12:41;4.17;;;3.87;;
2257;SDS011;1136;51.574;7.706;2023-03-29T14:15:17;4.47;;;4.07;;
2257;SDS011;1136;51.574;7.706;2023-03-29T14:17:46;4.27;;;3.97;;
2257;SDS011;1136;51.574;7.706;2023-03-29T14:20:13;4.40;;;4.00;;
2257;SDS011;1136;51.574;7.706;2023-03-29T14:22:40;5.47;;;4.30;;
2257;SDS011;1136;51.574;7.706;2023-03-29T14:25:12;5.07;;;4.23;;
2257;SDS011;1136;51.574;7.706;2023-03-29T14:27:40;4.40;;;4.10;;
2257;SDS011;1136;51.574;7.706;2023-03-29T14:30:18;10.10;;;4.30;;
2257;SDS011;1136;51.574;7.706;2023-03-29T14:32:47;4.43;;;4.00;;
2257;SDS011;1136;51.574;7.706;2023-03-29T14:35:15;6.00;;;4.80;;
2257;SDS011;1136;51.574;7.706;2023-03-29T14:37:42;4.97;;;4.57;;
2257;SDS011;1136;51.574;7.706;2023-03-29T14:40:14;3.80;;;3.40;;
2257;SDS011;1136;51.574;7.706;2023-03-29T14:42:42;6.03;;;3.87;;
2257;SDS011;1136;51.574;7.706;2023-03-29T14:45:09;4.97;;;3.40;;
2257;SDS011;1136;51.574;7.706;2023-03-29T14:47:39;4.50;;;3.50;;
2257;SDS011;1136;51.574;7.706;2023-03-29T14:50:28;5.90;;;4.10;;
2257;SDS011;1136;51.574;7.706;2023-03-29T14:52:55;6.03;;;3.83;;
2257;SDS011;1136;51.574;7.706;2023-03-29T14:55:22;4.90;;;4.50;;
2257;SDS011;1136;51.574;7.706;2023-03-29T14:57:52;4.40;;;4.00;;
2257;SDS011;1136;51.574;7.706;2023-03-29T15:00:25;4.50;;;4.10;;
2257;SDS011;1136;51.574;7.706;2023-03-29T15:02:59;4.80;;;3.80;;
2257;SDS011;1136;51.574;7.706;2023-03-29T15:05:49;4.50;;;3.67;;
2257;SDS011;1136;51.574;7.706;2023-03-29T15:08:34;3.73;;;3.33;;
2257;SDS011;1136;51.574;7.706;2023-03-29T15:11:13;5.50;;;3.73;;
2257;SDS011;1136;51.574;7.706;2023-03-29T15:13:41;6.63;;;4.20;;
2257;SDS011;1136;51.574;7.706;2023-03-29T15:16:13;3.03;;;2.83;;
2257;SDS011;1136;51.574;7.706;2023-03-29T15:18:41;3.83;;;3.43;;
2257;SDS011;1136;51.574;7.706;2023-03-29T15:21:09;3.90;;;3.60;;
2257;SDS011;1136;51.574;7.706;2023-03-29T15:23:46;4.20;;;3.50;;
2257;SDS011;1136;51.574;7.706;2023-03-29T15:26:20;3.00;;;2.80;;
2257;SDS011;1136;51.574;7.706;2023-03-29T15:28:50;4.07;;;2.87;;
2257;SDS011;1136;51.574;7.706;2023-03-29T15:31:23;5.30;;;3.60;;
2257;SDS011;1136;51.574;7.706;2023-03-29T15:34:06;7.27;;;4.67;;
2257;SDS011;1136;51.574;7.706;2023-03-29T15:36:39;86.23;;;76.97;;
2257;SDS011;1136;51.574;7.706;2023-03-29T15:39:14;3.67;;;3.37;;
2257;SDS011;1136;51.574;7.706;2023-03-29T15:41:42;6.17;;;4.70;;
2257;SDS011;1136;51.574;7.706;2023-03-29T15:44:16;7.27;;;6.57;;
2257;SDS011;1136;51.574;7.706;2023-03-29T15:46:47;6.70;;;5.80;;
2257;SDS011;1136;51.574;7.706;2023-03-29T15:49:14;5.50;;;4.87;;
2257;SDS011;1136;51.574;7.706;2023-03-29T15:51:41;11.77;;;10.60;;
2257;SDS011;1136;51.574;7.706;2023-03-29T15:54:08;9.90;;;7.00;;
2257;SDS011;1136;51.574;7.706;2023-03-29T15:56:37;6.43;;;5.60;;
2257;SDS011;1136;51.574;7.706;2023-03-29T15:59:10;4.27;;;3.87;;
2257;SDS011;1136;51.574;7.706;2023-03-29T16:01:37;3.60;;;3.30;;
2257;SDS011;1136;51.574;7.706;2023-03-29T16:04:05;6.03;;;3.40;;
2257;SDS011;1136;51.574;7.706;2023-03-29T16:06:32;3.47;;;3.17;;
2257;SDS011;1136;51.574;7.706;2023-03-29T16:08:59;6.33;;;3.63;;
2257;SDS011;1136;51.574;7.706;2023-03-29T16:11:26;3.83;;;3.17;;
2257;SDS011;1136;51.574;7.706;2023-03-29T16:13:54;5.23;;;3.43;;
2257;SDS011;1136;51.574;7.706;2023-03-29T16:16:21;3.93;;;3.63;;
2257;SDS011;1136;51.574;7.706;2023-03-29T16:18:49;3.43;;;2.97;;
2257;SDS011;1136;51.574;7.706;2023-03-29T16:21:16;3.70;;;3.10;;
2257;SDS011;1136;51.574;7.706;2023-03-29T16:23:44;4.20;;;2.70;;
2257;SDS011;1136;51.574;7.706;2023-03-29T16:26:12;3.90;;;2.80;;
2257;SDS011;1136;51.574;7.706;2023-03-29T16:28:40;4.03;;;2.60;;
2257;SDS011;1136;51.574;7.706;2023-03-29T16:31:08;4.30;;;2.90;;
2257;SDS011;1136;51.574;7.706;2023-03-29T16:33:37;3.20;;;2.40;;
2257;SDS011;1136;51.574;7.706;2023-03-29T16:36:04;3.60;;;2.80;;
2257;SDS011;1136;51.574;7.706;2023-03-29T16:38:31;3.30;;;3.00;;
2257;SDS011;1136;51.574;7.706;2023-03-29T16:40:59;3.93;;;3.13;;
2257;SDS011;1136;51.574;7.706;2023-03-29T16:43:26;3.40;;;2.50;;
2257;SDS011;1136;51.574;7.706;2023-03-29T16:45:53;2.83;;;2.50;;
2257;SDS011;1136;51.574;7.706;2023-03-29T16:48:20;2.53;;;2.33;;
2257;SDS011;1136;51.574;7.706;2023-03-29T16:50:47;3.07;;;2.77;;
2257;SDS011;1136;51.574;7.706;2023-03-29T16:53:15;2.93;;;2.50;;
2257;SDS011;1136;51.574;7.706;2023-03-29T16:55:46;2.90;;;2.60;;
2257;SDS011;1136;51.574;7.706;2023-03-29T16:58:13;4.57;;;2.87;;
2257;SDS011;1136;51.574;7.706;2023-03-29T17:00:41;2.97;;;2.77;;
2257;SDS011;1136;51.574;7.706;2023-03-29T17:03:10;2.77;;;2.20;;
2257;SDS011;1136;51.574;7.706;2023-03-29T17:05:37;4.10;;;2.67;;
2257;SDS011;1136;51.574;7.706;2023-03-29T17:08:07;2.43;;;2.17;;
2257;SDS011;1136;51.574;7.706;2023-03-29T17:10:35;2.93;;;2.70;;
2257;SDS011;1136;51.574;7.706;2023-03-29T17:13:05;3.63;;;3.33;;
2257;SDS011;1136;51.574;7.706;2023-03-29T17:15:33;5.30;;;3.10;;
2257;SDS011;1136;51.574;7.706;2023-03-29T17:18:04;3.00;;;2.70;;
2257;SDS011;1136;51.574;7.706;2023-03-29T17:20:31;4.03;;;2.43;;
2257;SDS011;1136;51.574;7.706;2023-03-29T17:22:57;3.53;;;3.30;;
2257;SDS011;1136;51.574;7.706;2023-03-29T17:25:24;3.20;;;2.93;;
2257;SDS011;1136;51.574;7.706;2023-03-29T17:27:51;6.60;;;3.57;;
2257;SDS011;1136;51.574;7.706;2023-03-29T17:30:19;6.60;;;3.00;;
2257;SDS011;1136;51.574;7.706;2023-03-29T17:32:46;3.57;;;3.27;;
2257;SDS011;1136;51.574;7.706;2023-03-29T17:35:12;4.37;;;2.97;;
2257;SDS011;1136;51.574;7.706;2023-03-29T17:37:39;4.97;;;2.97;;